sensor_id;sensor_type;location;lat;lon;timestamp;pressure;altitude;pressure_sealevel;temperature;humidity
5053;BME280;2545;50.892;5.740;2023-02-21T00:02:14;56394.47;;;-142.21;100.00
5053;BME280;2545;50.892;5.740;2023-02-21T00:04:58;56404.28;;;-142.21;100.00
5053;BME280;2545;50.892;5.740;2023-02-21T00:07:42;56404.28;;;-142.21;100.00
5053;BME280;2545;50.892;5.740;2023-02-21T00:10:26;56376.81;;;-142.21;100.00
5053;BME280;2545;50.892;5.740;2023-02-21T00:13:09;56419.97;;;-142.21;100.00
5053;BME280;2545;50.892;5.740;2023-02-21T00:15:54;56429.75;;;-142.21;100.00
5053;BME280;2545;50.892;5.740;2023-02-21T00:18:38;56421.91;;;-142.21;100.00
5053;BME280;2545;50.892;5.740;2023-02-21T00:21:23;56406.22;;;-142.21;100.00
5053;BME280;2545;50.892;5.740;2023-02-21T00:24:07;56384.66;;;-142.21;100.00
5053;BME280;2545;50.892;5.740;2023-02-21T00:26:54;56419.97;;;-142.21;100.00
5053;BME280;2545;50.892;5.740;2023-02-21T00:29:38;56400.34;;;-142.21;100.00
5053;BME280;2545;50.892;5.740;2023-02-21T00:32:22;56392.50;;;-142.21;100.00
5053;BME280;2545;50.892;5.740;2023-02-21T00:35:07;56376.81;;;-142.21;100.00
5053;BME280;2545;50.892;5.740;2023-02-21T00:37:52;56384.66;;;-142.21;100.00
5053;BME280;2545;50.892;5.740;2023-02-21T00:40:36;56418.00;;;-142.21;100.00
5053;BME280;2545;50.892;5.740;2023-02-21T00:43:26;56382.69;;;-142.21;100.00
5053;BME280;2545;50.892;5.740;2023-02-21T00:46:10;56416.03;;;-142.21;100.00
5053;BME280;2545;50.892;5.740;2023-02-21T00:48:54;56408.19;;;-142.21;100.00
5053;BME280;2545;50.892;5.740;2023-02-21T00:51:38;56402.31;;;-142.21;100.00
5053;BME280;2545;50.892;5.740;2023-02-21T00:54:22;56398.38;;;-142.21;100.00
5053;BME280;2545;50.892;5.740;2023-02-21T00:57:06;56390.53;;;-142.21;100.00
5053;BME280;2545;50.892;5.740;2023-02-21T00:59:50;56398.38;;;-142.21;100.00
5053;BME280;2545;50.892;5.740;2023-02-21T01:02:34;56406.22;;;-142.21;100.00
5053;BME280;2545;50.892;5.740;2023-02-21T01:05:18;56388.59;;;-142.21;100.00
5053;BME280;2545;50.892;5.740;2023-02-21T01:08:01;56398.38;;;-142.21;100.00
5053;BME280;2545;50.892;5.740;2023-02-21T01:10:45;56406.22;;;-142.21;100.00
5053;BME280;2545;50.892;5.740;2023-02-21T01:13:29;56388.59;;;-142.21;100.00
5053;BME280;2545;50.892;5.740;2023-02-21T01:16:13;56418.00;;;-142.21;100.00
5053;BME280;2545;50.892;5.740;2023-02-21T01:18:57;56421.91;;;-142.21;100.00
5053;BME280;2545;50.892;5.740;2023-02-21T01:21:41;56382.69;;;-142.21;100.00
5053;BME280;2545;50.892;5.740;2023-02-21T01:24:25;56416.03;;;-142.21;100.00
5053;BME280;2545;50.892;5.740;2023-02-21T01:27:08;56410.16;;;-142.21;100.00
5053;BME280;2545;50.892;5.740;2023-02-21T01:29:52;56374.84;;;-142.21;100.00
5053;BME280;2545;50.892;5.740;2023-02-21T01:32:36;56380.75;;;-142.21;100.00
5053;BME280;2545;50.892;5.740;2023-02-21T01:35:20;56404.28;;;-142.21;100.00
5053;BME280;2545;50.892;5.740;2023-02-21T01:38:04;56398.38;;;-142.21;100.00
5053;BME280;2545;50.892;5.740;2023-02-21T01:40:48;56398.38;;;-142.21;100.00
5053;BME280;2545;50.892;5.740;2023-02-21T01:43:32;56404.28;;;-142.21;100.00
5053;BME280;2545;50.892;5.740;2023-02-21T01:46:17;56404.28;;;-142.21;100.00
5053;BME280;2545;50.892;5.740;2023-02-21T01:49:12;56390.53;;;-142.21;100.00
5053;BME280;2545;50.892;5.740;2023-02-21T01:52:00;56386.63;;;-142.21;100.00
5053;BME280;2545;50.892;5.740;2023-02-21T01:54:49;56408.19;;;-142.21;100.00
5053;BME280;2545;50.892;5.740;2023-02-21T01:57:34;56400.34;;;-142.21;100.00
5053;BME280;2545;50.892;5.740;2023-02-21T02:00:18;56423.88;;;-142.21;100.00
5053;BME280;2545;50.892;5.740;2023-02-21T02:03:05;56380.75;;;-142.21;100.00
5053;BME280;2545;50.892;5.740;2023-02-21T02:06:13;56363.09;;;-142.21;100.00
5053;BME280;2545;50.892;5.740;2023-02-21T02:08:57;56388.59;;;-142.21;100.00
5053;BME280;2545;50.892;5.740;2023-02-21T02:12:21;56419.97;;;-142.21;100.00
5053;BME280;2545;50.892;5.740;2023-02-21T02:15:17;56410.16;;;-142.21;100.00
5053;BME280;2545;50.892;5.740;2023-02-21T02:20:25;56433.69;;;-142.21;100.00
5053;BME280;2545;50.892;5.740;2023-02-21T02:26:16;56396.44;;;-142.21;100.00
5053;BME280;2545;50.892;5.740;2023-02-21T02:37:09;56382.69;;;-142.21;100.00
5053;BME280;2545;50.892;5.740;2023-02-21T02:45:41;56402.31;;;-142.21;100.00
5053;BME280;2545;50.892;5.740;2023-02-21T02:48:19;56418.00;;;-142.21;100.00
5053;BME280;2545;50.892;5.740;2023-02-21T02:50:47;56408.19;;;-142.21;100.00
5053;BME280;2545;50.892;5.740;2023-02-21T02:53:16;56410.16;;;-142.21;100.00
5053;BME280;2545;50.892;5.740;2023-02-21T02:55:50;56418.00;;;-142.21;100.00
5053;BME280;2545;50.892;5.740;2023-02-21T02:58:17;56412.13;;;-142.21;100.00
5053;BME280;2545;50.892;5.740;2023-02-21T03:00:54;56386.63;;;-142.21;100.00
5053;BME280;2545;50.892;5.740;2023-02-21T03:09:03;56384.66;;;-142.21;100.00
5053;BME280;2545;50.892;5.740;2023-02-21T03:11:30;56419.97;;;-142.21;100.00
5053;BME280;2545;50.892;5.740;2023-02-21T03:14:09;56419.97;;;-142.21;100.00
5053;BME280;2545;50.892;5.740;2023-02-21T03:16:43;56425.84;;;-142.21;100.00
5053;BME280;2545;50.892;5.740;2023-02-21T03:19:18;56457.22;;;-142.21;100.00
5053;BME280;2545;50.892;5.740;2023-02-21T03:21:54;56408.19;;;-142.21;100.00
5053;BME280;2545;50.892;5.740;2023-02-21T03:24:22;56396.44;;;-142.21;100.00
5053;BME280;2545;50.892;5.740;2023-02-21T03:26:51;56414.06;;;-142.21;100.00
5053;BME280;2545;50.892;5.740;2023-02-21T03:29:18;56394.47;;;-142.21;100.00
5053;BME280;2545;50.892;5.740;2023-02-21T03:31:47;56414.06;;;-142.21;100.00
5053;BME280;2545;50.892;5.740;2023-02-21T03:34:14;56419.97;;;-142.21;100.00
5053;BME280;2545;50.892;5.740;2023-02-21T03:36:40;56423.88;;;-142.21;100.00
5053;BME280;2545;50.892;5.740;2023-02-21T03:39:06;56416.03;;;-142.21;100.00
5053;BME280;2545;50.892;5.740;2023-02-21T03:41:31;56419.97;;;-142.21;100.00
5053;BME280;2545;50.892;5.740;2023-02-21T03:43:56;56398.38;;;-142.21;100.00
5053;BME280;2545;50.892;5.740;2023-02-21T03:46:22;56404.28;;;-142.21;100.00
5053;BME280;2545;50.892;5.740;2023-02-21T03:48:47;56419.97;;;-142.21;100.00
5053;BME280;2545;50.892;5.740;2023-02-21T03:51:12;56441.53;;;-142.21;100.00
5053;BME280;2545;50.892;5.740;2023-02-21T03:53:38;56390.53;;;-142.21;100.00
5053;BME280;2545;50.892;5.740;2023-02-21T03:56:03;56410.16;;;-142.21;100.00
5053;BME280;2545;50.892;5.740;2023-02-21T03:58:29;56414.06;;;-142.21;100.00
5053;BME280;2545;50.892;5.740;2023-02-21T04:00:54;56425.84;;;-142.21;100.00
5053;BME280;2545;50.892;5.740;2023-02-21T04:03:19;56418.00;;;-142.21;100.00
5053;BME280;2545;50.892;5.740;2023-02-21T04:05:45;56386.63;;;-142.21;100.00
5053;BME280;2545;50.892;5.740;2023-02-21T04:08:10;56372.91;;;-142.21;100.00
5053;BME280;2545;50.892;5.740;2023-02-21T04:10:35;56431.72;;;-142.21;100.00
5053;BME280;2545;50.892;5.740;2023-02-21T04:13:01;56380.75;;;-142.21;100.00
5053;BME280;2545;50.892;5.740;2023-02-21T04:15:26;56429.75;;;-142.21;100.00
5053;BME280;2545;50.892;5.740;2023-02-21T04:17:51;56400.34;;;-142.21;100.00
5053;BME280;2545;50.892;5.740;2023-02-21T04:20:17;56388.59;;;-142.21;100.00
5053;BME280;2545;50.892;5.740;2023-02-21T04:22:42;56429.75;;;-142.21;100.00
5053;BME280;2545;50.892;5.740;2023-02-21T04:25:09;56382.69;;;-142.21;100.00
5053;BME280;2545;50.892;5.740;2023-02-21T04:27:34;56435.66;;;-142.21;100.00
5053;BME280;2545;50.892;5.740;2023-02-21T04:30:00;56416.03;;;-142.21;100.00
5053;BME280;2545;50.892;5.740;2023-02-21T04:32:25;56419.97;;;-142.21;100.00
5053;BME280;2545;50.892;5.740;2023-02-21T04:34:51;56433.69;;;-142.21;100.00
5053;BME280;2545;50.892;5.740;2023-02-21T04:37:16;56398.38;;;-142.21;100.00
5053;BME280;2545;50.892;5.740;2023-02-21T04:39:41;56384.66;;;-142.21;100.00
5053;BME280;2545;50.892;5.740;2023-02-21T04:42:07;56394.47;;;-142.21;100.00
5053;BME280;2545;50.892;5.740;2023-02-21T04:44:35;56414.06;;;-142.21;100.00
5053;BME280;2545;50.892;5.740;2023-02-21T04:47:00;56425.84;;;-142.21;100.00
5053;BME280;2545;50.892;5.740;2023-02-21T04:49:25;56419.97;;;-142.21;100.00
5053;BME280;2545;50.892;5.740;2023-02-21T04:51:52;56410.16;;;-142.21;100.00
5053;BME280;2545;50.892;5.740;2023-02-21T04:54:18;56374.84;;;-142.21;100.00
5053;BME280;2545;50.892;5.740;2023-02-21T04:56:43;56386.63;;;-142.21;100.00
5053;BME280;2545;50.892;5.740;2023-02-21T04:59:08;56441.53;;;-142.21;100.00
5053;BME280;2545;50.892;5.740;2023-02-21T05:01:34;56392.50;;;-142.21;100.00
5053;BME280;2545;50.892;5.740;2023-02-21T05:03:59;56431.72;;;-142.21;100.00
5053;BME280;2545;50.892;5.740;2023-02-21T05:06:26;56423.88;;;-142.21;100.00
5053;BME280;2545;50.892;5.740;2023-02-21T05:08:52;56361.13;;;-142.21;100.00
5053;BME280;2545;50.892;5.740;2023-02-21T05:11:18;56425.84;;;-142.21;100.00
5053;BME280;2545;50.892;5.740;2023-02-21T05:13:45;56406.22;;;-142.21;100.00
5053;BME280;2545;50.892;5.740;2023-02-21T05:16:11;56398.38;;;-142.21;100.00
5053;BME280;2545;50.892;5.740;2023-02-21T05:18:36;56429.75;;;-142.21;100.00
5053;BME280;2545;50.892;5.740;2023-02-21T05:21:04;56429.75;;;-142.21;100.00
5053;BME280;2545;50.892;5.740;2023-02-21T05:23:29;56419.97;;;-142.21;100.00
5053;BME280;2545;50.892;5.740;2023-02-21T05:26:18;56423.88;;;-142.21;100.00
5053;BME280;2545;50.892;5.740;2023-02-21T05:28:43;56414.06;;;-142.21;100.00
5053;BME280;2545;50.892;5.740;2023-02-21T05:31:09;56410.16;;;-142.21;100.00
5053;BME280;2545;50.892;5.740;2023-02-21T05:33:34;56396.44;;;-142.21;100.00
5053;BME280;2545;50.892;5.740;2023-02-21T05:36:00;56394.47;;;-142.21;100.00
5053;BME280;2545;50.892;5.740;2023-02-21T05:38:25;56410.16;;;-142.21;100.00
5053;BME280;2545;50.892;5.740;2023-02-21T05:40:51;56435.66;;;-142.21;100.00
5053;BME280;2545;50.892;5.740;2023-02-21T05:43:16;56421.91;;;-142.21;100.00
5053;BME280;2545;50.892;5.740;2023-02-21T05:45:42;56372.91;;;-142.21;100.00
5053;BME280;2545;50.892;5.740;2023-02-21T05:48:07;56386.63;;;-142.21;100.00
5053;BME280;2545;50.892;5.740;2023-02-21T05:50:32;56451.34;;;-142.21;100.00
5053;BME280;2545;50.892;5.740;2023-02-21T05:52:58;56388.59;;;-142.21;100.00
5053;BME280;2545;50.892;5.740;2023-02-21T05:55:24;56416.03;;;-142.21;100.00
5053;BME280;2545;50.892;5.740;2023-02-21T05:57:50;56372.91;;;-142.21;100.00
5053;BME280;2545;50.892;5.740;2023-02-21T06:00:24;56404.28;;;-142.21;100.00
5053;BME280;2545;50.892;5.740;2023-02-21T06:02:50;56388.59;;;-142.21;100.00
5053;BME280;2545;50.892;5.740;2023-02-21T06:05:19;56429.75;;;-142.21;100.00
5053;BME280;2545;50.892;5.740;2023-02-21T06:07:45;56425.84;;;-142.21;100.00
5053;BME280;2545;50.892;5.740;2023-02-21T06:10:11;56410.16;;;-142.21;100.00
5053;BME280;2545;50.892;5.740;2023-02-21T06:12:37;56394.47;;;-142.21;100.00
5053;BME280;2545;50.892;5.740;2023-02-21T06:15:03;56435.66;;;-142.21;100.00
5053;BME280;2545;50.892;5.740;2023-02-21T06:17:37;56408.19;;;-142.21;100.00
5053;BME280;2545;50.892;5.740;2023-02-21T06:20:04;56412.13;;;-142.21;100.00
5053;BME280;2545;50.892;5.740;2023-02-21T06:22:30;56443.50;;;-142.21;100.00
5053;BME280;2545;50.892;5.740;2023-02-21T06:24:55;56453.28;;;-142.21;100.00
5053;BME280;2545;50.892;5.740;2023-02-21T06:27:21;56425.84;;;-142.21;100.00
5053;BME280;2545;50.892;5.740;2023-02-21T06:29:46;56406.22;;;-142.21;100.00
5053;BME280;2545;50.892;5.740;2023-02-21T06:32:11;56414.06;;;-142.21;100.00
5053;BME280;2545;50.892;5.740;2023-02-21T06:34:37;56418.00;;;-142.21;100.00
5053;BME280;2545;50.892;5.740;2023-02-21T06:37:02;56390.53;;;-142.21;100.00
5053;BME280;2545;50.892;5.740;2023-02-21T06:39:28;56418.00;;;-142.21;100.00
5053;BME280;2545;50.892;5.740;2023-02-21T06:41:53;56419.97;;;-142.21;100.00
5053;BME280;2545;50.892;5.740;2023-02-21T06:44:19;56392.50;;;-142.21;100.00
5053;BME280;2545;50.892;5.740;2023-02-21T06:46:44;56416.03;;;-142.21;100.00
5053;BME280;2545;50.892;5.740;2023-02-21T06:49:11;56425.84;;;-142.21;100.00
5053;BME280;2545;50.892;5.740;2023-02-21T06:51:39;56441.53;;;-142.21;100.00
5053;BME280;2545;50.892;5.740;2023-02-21T06:54:06;56394.47;;;-142.21;100.00
5053;BME280;2545;50.892;5.740;2023-02-21T06:56:34;56410.16;;;-142.21;100.00
5053;BME280;2545;50.892;5.740;2023-02-21T06:59:00;56441.53;;;-142.21;100.00
5053;BME280;2545;50.892;5.740;2023-02-21T07:01:26;56410.16;;;-142.21;100.00
5053;BME280;2545;50.892;5.740;2023-02-21T07:03:53;56402.31;;;-142.21;100.00
5053;BME280;2545;50.892;5.740;2023-02-21T07:06:19;56398.38;;;-142.21;100.00
5053;BME280;2545;50.892;5.740;2023-02-21T07:08:45;56433.69;;;-142.21;100.00
5053;BME280;2545;50.892;5.740;2023-02-21T07:11:10;56392.50;;;-142.21;100.00
5053;BME280;2545;50.892;5.740;2023-02-21T07:13:36;56453.28;;;-142.21;100.00
5053;BME280;2545;50.892;5.740;2023-02-21T07:16:02;56421.91;;;-142.21;100.00
5053;BME280;2545;50.892;5.740;2023-02-21T07:18:28;56425.84;;;-142.21;100.00
5053;BME280;2545;50.892;5.740;2023-02-21T07:20:53;56421.91;;;-142.21;100.00
5053;BME280;2545;50.892;5.740;2023-02-21T07:23:19;56386.63;;;-142.21;100.00
5053;BME280;2545;50.892;5.740;2023-02-21T07:25:44;56427.81;;;-142.21;100.00
5053;BME280;2545;50.892;5.740;2023-02-21T07:28:10;56419.97;;;-142.21;100.00
5053;BME280;2545;50.892;5.740;2023-02-21T07:30:35;56404.28;;;-142.21;100.00
5053;BME280;2545;50.892;5.740;2023-02-21T07:33:01;56414.06;;;-142.21;100.00
5053;BME280;2545;50.892;5.740;2023-02-21T07:35:26;56439.56;;;-142.21;100.00
5053;BME280;2545;50.892;5.740;2023-02-21T07:37:51;56429.75;;;-142.21;100.00
5053;BME280;2545;50.892;5.740;2023-02-21T07:40:18;56443.50;;;-142.21;100.00
5053;BME280;2545;50.892;5.740;2023-02-21T07:42:43;56372.91;;;-142.21;100.00
5053;BME280;2545;50.892;5.740;2023-02-21T07:45:12;56414.06;;;-142.21;100.00
5053;BME280;2545;50.892;5.740;2023-02-21T07:47:38;56429.75;;;-142.21;100.00
5053;BME280;2545;50.892;5.740;2023-02-21T07:50:04;56423.88;;;-142.21;100.00
5053;BME280;2545;50.892;5.740;2023-02-21T07:52:29;56394.47;;;-142.21;100.00
5053;BME280;2545;50.892;5.740;2023-02-21T07:54:55;56427.81;;;-142.21;100.00
5053;BME280;2545;50.892;5.740;2023-02-21T07:57:20;56414.06;;;-142.21;100.00
5053;BME280;2545;50.892;5.740;2023-02-21T07:59:46;56412.13;;;-142.21;100.00
5053;BME280;2545;50.892;5.740;2023-02-21T08:02:12;56425.84;;;-142.21;100.00
5053;BME280;2545;50.892;5.740;2023-02-21T08:04:37;56384.66;;;-142.21;100.00
5053;BME280;2545;50.892;5.740;2023-02-21T08:07:04;56398.38;;;-142.21;100.00
5053;BME280;2545;50.892;5.740;2023-02-21T08:09:29;56414.06;;;-142.21;100.00
5053;BME280;2545;50.892;5.740;2023-02-21T08:11:55;56404.28;;;-142.21;100.00
5053;BME280;2545;50.892;5.740;2023-02-21T08:14:20;56429.75;;;-142.21;100.00
5053;BME280;2545;50.892;5.740;2023-02-21T08:16:46;56427.81;;;-142.21;100.00
5053;BME280;2545;50.892;5.740;2023-02-21T08:19:11;56412.13;;;-142.21;100.00
5053;BME280;2545;50.892;5.740;2023-02-21T08:21:37;56410.16;;;-142.21;100.00
5053;BME280;2545;50.892;5.740;2023-02-21T08:24:03;56410.16;;;-142.21;100.00
5053;BME280;2545;50.892;5.740;2023-02-21T08:26:28;56367.00;;;-142.21;100.00
5053;BME280;2545;50.892;5.740;2023-02-21T08:28:54;56445.44;;;-142.21;100.00
5053;BME280;2545;50.892;5.740;2023-02-21T08:31:20;56412.13;;;-142.21;100.00
5053;BME280;2545;50.892;5.740;2023-02-21T08:33:45;56441.53;;;-142.21;100.00
5053;BME280;2545;50.892;5.740;2023-02-21T08:36:10;56427.81;;;-142.21;100.00
5053;BME280;2545;50.892;5.740;2023-02-21T08:38:37;56441.53;;;-142.21;100.00
5053;BME280;2545;50.892;5.740;2023-02-21T08:41:03;56414.06;;;-142.21;100.00
5053;BME280;2545;50.892;5.740;2023-02-21T08:43:30;56435.66;;;-142.21;100.00
5053;BME280;2545;50.892;5.740;2023-02-21T08:45:56;56421.91;;;-142.21;100.00
5053;BME280;2545;50.892;5.740;2023-02-21T08:48:21;56351.31;;;-142.21;100.00
5053;BME280;2545;50.892;5.740;2023-02-21T08:50:46;56414.06;;;-142.21;100.00
5053;BME280;2545;50.892;5.740;2023-02-21T08:53:13;56404.28;;;-142.21;100.00
5053;BME280;2545;50.892;5.740;2023-02-21T08:55:38;56421.91;;;-142.21;100.00
5053;BME280;2545;50.892;5.740;2023-02-21T08:58:03;56451.34;;;-142.21;100.00
5053;BME280;2545;50.892;5.740;2023-02-21T09:00:29;56425.84;;;-142.21;100.00
5053;BME280;2545;50.892;5.740;2023-02-21T09:02:55;56412.13;;;-142.21;100.00
5053;BME280;2545;50.892;5.740;2023-02-21T09:05:25;56390.53;;;-142.21;100.00
5053;BME280;2545;50.892;5.740;2023-02-21T09:07:51;56418.00;;;-142.21;100.00
5053;BME280;2545;50.892;5.740;2023-02-21T09:10:19;56421.91;;;-142.21;100.00
5053;BME280;2545;50.892;5.740;2023-02-21T09:12:45;56439.56;;;-142.21;100.00
5053;BME280;2545;50.892;5.740;2023-02-21T09:15:14;56410.16;;;-142.21;100.00
5053;BME280;2545;50.892;5.740;2023-02-21T09:17:39;56435.66;;;-142.21;100.00
5053;BME280;2545;50.892;5.740;2023-02-21T09:20:07;56402.31;;;-142.21;100.00
5053;BME280;2545;50.892;5.740;2023-02-21T09:22:33;56412.13;;;-142.21;100.00
5053;BME280;2545;50.892;5.740;2023-02-21T09:25:00;56416.03;;;-142.21;100.00
5053;BME280;2545;50.892;5.740;2023-02-21T09:27:26;56408.19;;;-142.21;100.00
5053;BME280;2545;50.892;5.740;2023-02-21T09:30:12;56390.53;;;-142.21;100.00
5053;BME280;2545;50.892;5.740;2023-02-21T09:32:39;56439.56;;;-142.21;100.00
5053;BME280;2545;50.892;5.740;2023-02-21T09:35:05;56423.88;;;-142.21;100.00
5053;BME280;2545;50.892;5.740;2023-02-21T09:37:31;56414.06;;;-142.21;100.00
5053;BME280;2545;50.892;5.740;2023-02-21T09:39:57;56406.22;;;-142.21;100.00
5053;BME280;2545;50.892;5.740;2023-02-21T09:42:27;56404.28;;;-142.21;100.00
5053;BME280;2545;50.892;5.740;2023-02-21T09:44:53;56408.19;;;-142.21;100.00
5053;BME280;2545;50.892;5.740;2023-02-21T09:47:32;56414.06;;;-142.21;100.00
5053;BME280;2545;50.892;5.740;2023-02-21T09:50:11;56414.06;;;-142.21;100.00
5053;BME280;2545;50.892;5.740;2023-02-21T09:52:39;56414.06;;;-142.21;100.00
5053;BME280;2545;50.892;5.740;2023-02-21T09:55:30;56414.06;;;-142.21;100.00
5053;BME280;2545;50.892;5.740;2023-02-21T09:57:58;56439.56;;;-142.21;100.00
5053;BME280;2545;50.892;5.740;2023-02-21T10:00:32;56374.84;;;-142.21;100.00
5053;BME280;2545;50.892;5.740;2023-02-21T10:07:03;56398.38;;;-142.21;100.00
5053;BME280;2545;50.892;5.740;2023-02-21T10:17:37;56445.44;;;-142.21;100.00
5053;BME280;2545;50.892;5.740;2023-02-21T10:20:26;56408.19;;;-142.21;100.00
5053;BME280;2545;50.892;5.740;2023-02-21T10:22:55;56382.69;;;-142.21;100.00
5053;BME280;2545;50.892;5.740;2023-02-21T10:25:38;56370.94;;;-142.21;100.00
5053;BME280;2545;50.892;5.740;2023-02-21T10:28:07;56384.66;;;-142.21;100.00
5053;BME280;2545;50.892;5.740;2023-02-21T10:30:38;56388.59;;;-142.21;100.00
5053;BME280;2545;50.892;5.740;2023-02-21T10:33:06;56398.38;;;-142.21;100.00
5053;BME280;2545;50.892;5.740;2023-02-21T10:35:37;56416.03;;;-142.21;100.00
5053;BME280;2545;50.892;5.740;2023-02-21T10:38:06;56414.06;;;-142.21;100.00
5053;BME280;2545;50.892;5.740;2023-02-21T10:43:46;56412.13;;;-142.21;100.00
5053;BME280;2545;50.892;5.740;2023-02-21T10:46:20;56412.13;;;-142.21;100.00
5053;BME280;2545;50.892;5.740;2023-02-21T10:48:50;56374.84;;;-142.21;100.00
5053;BME280;2545;50.892;5.740;2023-02-21T10:51:28;56410.16;;;-142.21;100.00
5053;BME280;2545;50.892;5.740;2023-02-21T10:54:21;56441.53;;;-142.21;100.00
5053;BME280;2545;50.892;5.740;2023-02-21T10:56:51;56443.50;;;-142.21;100.00
5053;BME280;2545;50.892;5.740;2023-02-21T10:59:23;56425.84;;;-142.21;100.00
5053;BME280;2545;50.892;5.740;2023-02-21T11:01:49;56439.56;;;-142.21;100.00
5053;BME280;2545;50.892;5.740;2023-02-21T11:04:22;56345.44;;;-142.21;100.00
5053;BME280;2545;50.892;5.740;2023-02-21T11:06:51;56419.97;;;-142.21;100.00
5053;BME280;2545;50.892;5.740;2023-02-21T11:09:40;56367.00;;;-142.21;100.00
5053;BME280;2545;50.892;5.740;2023-02-21T11:15:09;56406.22;;;-142.21;100.00
5053;BME280;2545;50.892;5.740;2023-02-21T11:17:41;56427.81;;;-142.21;100.00
5053;BME280;2545;50.892;5.740;2023-02-21T11:22:40;56416.03;;;-142.21;100.00
5053;BME280;2545;50.892;5.740;2023-02-21T11:25:29;56437.59;;;-142.21;100.00
5053;BME280;2545;50.892;5.740;2023-02-21T11:28:16;56374.84;;;-142.21;100.00
5053;BME280;2545;50.892;5.740;2023-02-21T11:31:04;56429.75;;;-142.21;100.00
5053;BME280;2545;50.892;5.740;2023-02-21T11:33:31;56386.63;;;-142.21;100.00
5053;BME280;2545;50.892;5.740;2023-02-21T11:36:14;56398.38;;;-142.21;100.00
5053;BME280;2545;50.892;5.740;2023-02-21T11:38:59;56423.88;;;-142.21;100.00
5053;BME280;2545;50.892;5.740;2023-02-21T11:41:35;56390.53;;;-142.21;100.00
5053;BME280;2545;50.892;5.740;2023-02-21T11:44:01;56398.38;;;-142.21;100.00
5053;BME280;2545;50.892;5.740;2023-02-21T11:46:46;56418.00;;;-142.21;100.00
5053;BME280;2545;50.892;5.740;2023-02-21T11:54:23;56367.00;;;-142.21;100.00
5053;BME280;2545;50.892;5.740;2023-02-21T11:57:07;56421.91;;;-142.21;100.00
5053;BME280;2545;50.892;5.740;2023-02-21T11:59:48;56347.41;;;-142.21;100.00
5053;BME280;2545;50.892;5.740;2023-02-21T12:13:48;56382.69;;;-142.21;100.00
5053;BME280;2545;50.892;5.740;2023-02-21T12:16:29;56400.34;;;-142.21;100.00
5053;BME280;2545;50.892;5.740;2023-02-21T12:21:55;56396.44;;;-142.21;100.00
5053;BME280;2545;50.892;5.740;2023-02-21T12:27:16;56382.69;;;-142.21;100.00
5053;BME280;2545;50.892;5.740;2023-02-21T12:30:08;56404.28;;;-142.21;100.00
5053;BME280;2545;50.892;5.740;2023-02-21T12:32:47;56376.81;;;-142.21;100.00
5053;BME280;2545;50.892;5.740;2023-02-21T12:37:55;56404.28;;;-142.21;100.00
5053;BME280;2545;50.892;5.740;2023-02-21T12:40:37;56402.31;;;-142.21;100.00
5053;BME280;2545;50.892;5.740;2023-02-21T12:46:12;56367.00;;;-142.21;100.00
5053;BME280;2545;50.892;5.740;2023-02-21T12:48:50;56374.84;;;-142.21;100.00
5053;BME280;2545;50.892;5.740;2023-02-21T12:51:27;56410.16;;;-142.21;100.00
5053;BME280;2545;50.892;5.740;2023-02-21T12:53:59;56392.50;;;-142.21;100.00
5053;BME280;2545;50.892;5.740;2023-02-21T12:56:41;56414.06;;;-142.21;100.00
5053;BME280;2545;50.892;5.740;2023-02-21T12:59:29;56376.81;;;-142.21;100.00
5053;BME280;2545;50.892;5.740;2023-02-21T13:02:02;56359.16;;;-142.21;100.00
5053;BME280;2545;50.892;5.740;2023-02-21T13:04:53;56386.63;;;-142.21;100.00
5053;BME280;2545;50.892;5.740;2023-02-21T13:07:32;56402.31;;;-142.21;100.00
5053;BME280;2545;50.892;5.740;2023-02-21T13:10:05;56402.31;;;-142.21;100.00
5053;BME280;2545;50.892;5.740;2023-02-21T13:12:59;56380.75;;;-142.21;92.32
5053;BME280;2545;50.892;5.740;2023-02-21T13:15:28;56374.84;;;-142.21;90.09
5053;BME280;2545;50.892;5.740;2023-02-21T13:18:05;56368.97;;;-142.21;89.52
5053;BME280;2545;50.892;5.740;2023-02-21T13:20:39;56398.38;;;-142.21;90.49
5053;BME280;2545;50.892;5.740;2023-02-21T13:23:06;56406.22;;;-142.21;90.64
5053;BME280;2545;50.892;5.740;2023-02-21T13:28:56;56386.63;;;-142.21;91.21
5053;BME280;2545;50.892;5.740;2023-02-21T13:31:25;56353.28;;;-142.21;91.31
5053;BME280;2545;50.892;5.740;2023-02-21T13:33:54;56376.81;;;-142.21;89.03
5053;BME280;2545;50.892;5.740;2023-02-21T13:36:32;56388.59;;;-142.21;84.98
5053;BME280;2545;50.892;5.740;2023-02-21T13:39:20;56374.84;;;-142.21;79.87
5053;BME280;2545;50.892;5.740;2023-02-21T13:41:52;56359.16;;;-142.21;79.48
5053;BME280;2545;50.892;5.740;2023-02-21T13:44:33;56378.78;;;-142.21;79.80
5053;BME280;2545;50.892;5.740;2023-02-21T13:47:10;56388.59;;;-142.21;75.44
5053;BME280;2545;50.892;5.740;2023-02-21T13:49:43;56380.75;;;-142.21;73.65
5053;BME280;2545;50.892;5.740;2023-02-21T13:57:50;56421.91;;;-142.21;72.49
5053;BME280;2545;50.892;5.740;2023-02-21T14:03:01;56359.16;;;-142.21;68.85
5053;BME280;2545;50.892;5.740;2023-02-21T14:08:34;56363.09;;;-142.21;64.35
5053;BME280;2545;50.892;5.740;2023-02-21T14:19:02;56343.47;;;-142.21;54.42
5053;BME280;2545;50.892;5.740;2023-02-21T14:21:41;56363.09;;;-142.21;55.87
5053;BME280;2545;50.892;5.740;2023-02-21T14:24:14;56337.59;;;-142.21;59.19
5053;BME280;2545;50.892;5.740;2023-02-21T14:29:12;56319.94;;;-142.21;54.81
5053;BME280;2545;50.892;5.740;2023-02-21T14:34:38;56349.38;;;-142.21;50.78
5053;BME280;2545;50.892;5.740;2023-02-21T14:39:45;56345.44;;;-142.21;52.97
5053;BME280;2545;50.892;5.740;2023-02-21T14:42:33;56361.13;;;-142.21;52.29
5053;BME280;2545;50.892;5.740;2023-02-21T14:50:58;56323.88;;;-142.21;54.02
5053;BME280;2545;50.892;5.740;2023-02-21T15:07:35;56312.09;;;-142.21;51.15
5053;BME280;2545;50.892;5.740;2023-02-21T15:10:04;56325.84;;;-142.21;51.61
5053;BME280;2545;50.892;5.740;2023-02-21T15:12:34;56300.34;;;-142.21;48.87
5053;BME280;2545;50.892;5.740;2023-02-21T15:15:01;56319.94;;;-142.21;48.62
5053;BME280;2545;50.892;5.740;2023-02-21T15:17:27;56304.25;;;-142.21;48.53
5053;BME280;2545;50.892;5.740;2023-02-21T15:20:13;56274.84;;;-142.21;48.72
5053;BME280;2545;50.892;5.740;2023-02-21T15:22:39;56314.06;;;-142.21;45.05